Time;durP1;ratioP1;P1;durP2;ratioP2;P2;SDS_P1;SDS_P2;PMS_P1;PMS_P2;Temp;Humidity;BMP_temperature;BMP_pressure;BME280_temperature;BME280_humidity;BME280_pressure;Samples;Min_cycle;Max_cycle;Signal;HPM_P1;HPM_P2
2022/07/29 00:00:01;;;;;;;4.30;3.58;;;;;;;;;;4970324;28;21730;-71
2022/07/29 00:02:27;;;;;;;4.10;3.33;;;;;;;;;;4972944;28;20057;-71
2022/07/29 00:04:52;;;;;;;3.90;3.60;;;;;;;;;;4979016;28;20061;-72
2022/07/29 00:07:18;;;;;;;4.25;3.85;;;;;;;;;;4966671;28;20081;-72
2022/07/29 00:09:43;;;;;;;3.72;3.42;;;;;;;;;;4975924;28;20377;-71
2022/07/29 00:12:09;;;;;;;4.25;3.83;;;;;;;;;;4980556;28;20034;-75
2022/07/29 00:14:34;;;;;;;4.57;3.80;;;;;;;;;;4976936;28;20062;-72
2022/07/29 00:16:59;;;;;;;4.43;3.65;;;;;;;;;;4978314;28;20384;-74
2022/07/29 00:19:25;;;;;;;4.13;3.60;;;;;;;;;;4978743;28;21094;-73
2022/07/29 00:21:50;;;;;;;4.75;4.13;;;;;;;;;;4980245;28;20034;-71
2022/07/29 00:24:15;;;;;;;5.32;4.00;;;;;;;;;;4980929;28;20049;-72
2022/07/29 00:26:41;;;;;;;4.30;3.90;;;;;;;;;;4980181;28;20454;-71
2022/07/29 00:29:06;;;;;;;4.90;3.78;;;;;;;;;;4979602;28;20018;-72
2022/07/29 00:31:32;;;;;;;4.60;4.15;;;;;;;;;;4972054;28;20027;-72
2022/07/29 00:33:57;;;;;;;4.30;3.90;;;;;;;;;;4978817;28;20038;-74
2022/07/29 00:36:22;;;;;;;4.03;3.60;;;;;;;;;;4979231;28;20042;-72
2022/07/29 00:38:48;;;;;;;4.63;4.28;;;;;;;;;;4979611;28;20025;-71
2022/07/29 00:41:14;;;;;;;4.28;3.97;;;;;;;;;;4979286;28;20486;-74
2022/07/29 00:43:39;;;;;;;4.60;4.20;;;;;;;;;;4979723;28;20089;-72
2022/07/29 00:46:04;;;;;;;4.80;4.40;;;;;;;;;;4980602;28;20121;-75
2022/07/29 00:48:30;;;;;;;4.40;4.07;;;;;;;;;;4978597;28;20029;-72
2022/07/29 00:50:59;;;;;;;5.88;4.55;;;;;;;;;;4980745;28;20034;-72
2022/07/29 00:53:25;;;;;;;4.68;4.28;;;;;;;;;;4979951;28;20438;-72
2022/07/29 00:55:50;;;;;;;4.32;3.92;;;;;;;;;;4980360;28;20045;-74
2022/07/29 00:58:16;;;;;;;5.63;4.40;;;;;;;;;;4979973;28;20018;-74
2022/07/29 01:00:41;;;;;;;5.10;3.80;;;;;;;;;;4980475;28;20507;-72
2022/07/29 01:03:07;;;;;;;5.90;4.65;;;;;;;;;;4981555;28;20040;-72
2022/07/29 01:05:33;;;;;;;4.75;4.32;;;;;;;;;;4979472;28;20027;-72
2022/07/29 01:07:59;;;;;;;4.30;4.00;;;;;;;;;;4979404;28;20026;-74
2022/07/29 01:10:25;;;;;;;4.80;4.05;;;;;;;;;;4977024;28;20034;-74
2022/07/29 01:12:52;;;;;;;4.28;3.75;;;;;;;;;;4975380;28;20026;-74
2022/07/29 01:15:18;;;;;;;5.55;4.50;;;;;;;;;;4979334;28;20033;-72
2022/07/29 01:17:43;;;;;;;4.25;3.78;;;;;;;;;;4981674;28;20034;-72
2022/07/29 01:20:14;;;;;;;4.43;4.03;;;;;;;;;;4978155;28;20117;-74
2022/07/29 01:22:59;;;;;;;4.57;4.18;;;;;;;;;;4978738;28;20461;-72
2022/07/29 01:25:40;;;;;;;6.03;4.90;;;;;;;;;;4978608;28;20035;-71
2022/07/29 01:28:25;;;;;;;5.90;5.30;;;;;;;;;;4978840;28;20034;-71
2022/07/29 01:30:51;;;;;;;5.65;5.15;;;;;;;;;;4980400;28;20027;-72
2022/07/29 01:36:04;;;;;;;6.75;5.75;;;;;;;;;;4979935;28;20116;-72
2022/07/29 01:38:30;;;;;;;6.13;5.50;;;;;;;;;;4977855;28;20046;-73
2022/07/29 01:41:04;;;;;;;7.88;6.38;;;;;;;;;;4976893;28;20086;-72
2022/07/29 01:43:37;;;;;;;5.97;5.47;;;;;;;;;;4979664;28;20442;-72
2022/07/29 01:46:05;;;;;;;5.63;4.68;;;;;;;;;;4975847;28;20356;-72
2022/07/29 01:48:40;;;;;;;5.72;5.32;;;;;;;;;;4975435;28;20357;-73
2022/07/29 01:51:28;;;;;;;6.15;5.65;;;;;;;;;;4978880;28;20035;-75
2022/07/29 01:53:57;;;;;;;6.32;5.78;;;;;;;;;;4975128;28;20046;-72
2022/07/29 01:56:24;;;;;;;5.75;5.28;;;;;;;;;;4979948;28;20022;-71
2022/07/29 01:58:49;;;;;;;5.97;5.50;;;;;;;;;;4978348;28;20041;-72
2022/07/29 02:01:15;;;;;;;5.68;5.18;;;;;;;;;;4978458;28;20039;-74
2022/07/29 02:03:42;;;;;;;5.07;4.65;;;;;;;;;;4977432;28;20117;-75
2022/07/29 02:06:09;;;;;;;6.43;5.38;;;;;;;;;;4977260;28;20050;-72
2022/07/29 02:08:35;;;;;;;5.80;5.30;;;;;;;;;;4975661;28;20346;-73
2022/07/29 02:11:02;;;;;;;6.10;5.30;;;;;;;;;;4976563;28;20069;-73
2022/07/29 02:13:27;;;;;;;6.15;5.55;;;;;;;;;;4968434;28;20185;-72
2022/07/29 02:15:53;;;;;;;5.72;5.22;;;;;;;;;;4977049;28;20460;-72
2022/07/29 02:18:20;;;;;;;6.25;5.00;;;;;;;;;;4973512;28;20089;-72
2022/07/29 02:20:48;;;;;;;5.82;5.32;;;;;;;;;;4970826;28;20114;-75
2022/07/29 02:23:14;;;;;;;5.93;5.32;;;;;;;;;;4978964;28;20073;-76
2022/07/29 02:25:41;;;;;;;4.15;3.75;;;;;;;;;;4978229;28;20022;-72
2022/07/29 02:28:07;;;;;;;4.90;4.45;;;;;;;;;;4977870;28;20041;-72
2022/07/29 02:30:33;;;;;;;4.35;4.05;;;;;;;;;;4978192;28;20018;-72
2022/07/29 02:32:59;;;;;;;5.35;4.53;;;;;;;;;;4977272;28;20107;-72
2022/07/29 02:35:24;;;;;;;6.07;4.80;;;;;;;;;;4977701;28;20034;-71
2022/07/29 02:40:37;;;;;;;5.35;4.40;;;;;;;;;;4977341;28;20065;-73
2022/07/29 02:43:04;;;;;;;4.93;3.95;;;;;;;;;;4970153;28;20022;-75
2022/07/29 02:45:29;;;;;;;5.85;4.22;;;;;;;;;;4977220;28;20121;-75
2022/07/29 02:47:55;;;;;;;4.32;3.92;;;;;;;;;;4975310;28;20431;-74
2022/07/29 02:50:27;;;;;;;4.75;4.35;;;;;;;;;;4976842;28;20370;-71
2022/07/29 02:52:53;;;;;;;7.38;4.15;;;;;;;;;;4978231;28;20378;-71
2022/07/29 02:55:27;;;;;;;8.15;5.35;;;;;;;;;;4978230;28;20034;-72
2022/07/29 02:58:05;;;;;;;5.47;4.97;;;;;;;;;;4985487;28;20046;-73
2022/07/29 03:00:31;;;;;;;7.03;4.75;;;;;;;;;;4977721;28;20030;-72
2022/07/29 03:02:59;;;;;;;5.95;5.45;;;;;;;;;;4977398;28;21036;-75
2022/07/29 03:05:25;;;;;;;6.25;5.47;;;;;;;;;;4975329;28;20445;-73
2022/07/29 03:08:04;;;;;;;6.32;5.72;;;;;;;;;;4978814;28;20026;-73
2022/07/29 03:10:30;;;;;;;6.45;5.40;;;;;;;;;;4975476;28;20030;-75
2022/07/29 03:12:56;;;;;;;6.03;5.43;;;;;;;;;;4975925;28;20119;-73
2022/07/29 03:15:21;;;;;;;6.15;5.43;;;;;;;;;;4976916;28;20022;-72
2022/07/29 03:17:47;;;;;;;5.80;5.28;;;;;;;;;;4978544;28;20346;-74
2022/07/29 03:20:13;;;;;;;6.82;5.22;;;;;;;;;;4976760;28;20085;-72
2022/07/29 03:22:46;;;;;;;5.40;4.90;;;;;;;;;;4977965;28;20027;-74
2022/07/29 03:25:15;;;;;;;8.50;5.70;;;;;;;;;;4976595;28;20091;-72
2022/07/29 03:27:41;;;;;;;7.78;6.07;;;;;;;;;;4977237;28;20034;-72
2022/07/29 03:30:07;;;;;;;6.65;5.18;;;;;;;;;;4972770;28;20038;-74
2022/07/29 03:32:33;;;;;;;4.95;4.55;;;;;;;;;;4963880;28;20533;-72
2022/07/29 03:34:58;;;;;;;6.10;5.60;;;;;;;;;;4978556;28;20066;-71
2022/07/29 03:37:24;;;;;;;5.55;5.10;;;;;;;;;;4977341;28;20050;-72
2022/07/29 03:39:50;;;;;;;9.27;5.80;;;;;;;;;;4976462;28;20055;-72
2022/07/29 03:42:19;;;;;;;5.60;5.10;;;;;;;;;;4975352;28;20173;-72
2022/07/29 03:44:47;;;;;;;6.10;5.60;;;;;;;;;;4982163;28;20026;-72
2022/07/29 03:47:13;;;;;;;6.82;5.18;;;;;;;;;;4981084;28;20698;-72
2022/07/29 03:49:40;;;;;;;6.63;5.93;;;;;;;;;;4981185;28;20030;-73
2022/07/29 03:52:05;;;;;;;7.15;6.45;;;;;;;;;;4977271;28;20456;-71
2022/07/29 03:54:31;;;;;;;6.50;5.97;;;;;;;;;;4979693;28;20022;-72
2022/07/29 03:56:59;;;;;;;8.27;5.93;;;;;;;;;;4968137;28;20343;-73
2022/07/29 03:59:24;;;;;;;7.57;6.88;;;;;;;;;;4976326;28;20019;-72
2022/07/29 04:01:50;;;;;;;7.63;6.50;;;;;;;;;;4972188;28;20022;-72
2022/07/29 04:04:15;;;;;;;6.85;5.95;;;;;;;;;;4975515;28;20033;-71
2022/07/29 04:06:42;;;;;;;6.75;6.13;;;;;;;;;;4982342;28;20106;-71
2022/07/29 04:09:08;;;;;;;7.70;5.68;;;;;;;;;;4979791;28;20362;-72
2022/07/29 04:11:34;;;;;;;6.45;5.43;;;;;;;;;;4980703;28;20030;-73
2022/07/29 04:13:59;;;;;;;6.07;5.50;;;;;;;;;;4978758;28;20031;-75
2022/07/29 04:16:24;;;;;;;6.43;5.70;;;;;;;;;;4982199;28;20027;-75
2022/07/29 04:18:50;;;;;;;7.03;6.45;;;;;;;;;;4980033;28;20026;-75
2022/07/29 04:21:15;;;;;;;8.77;5.93;;;;;;;;;;4980531;28;20437;-76
2022/07/29 04:23:40;;;;;;;11.60;5.43;;;;;;;;;;4973549;28;20461;-74
2022/07/29 04:26:09;;;;;;;8.27;7.47;;;;;;;;;;4980744;28;20037;-74
2022/07/29 04:28:34;;;;;;;11.85;7.10;;;;;;;;;;4979560;28;20026;-71
2022/07/29 04:31:00;;;;;;;6.90;5.60;;;;;;;;;;4980624;28;20029;-75
2022/07/29 04:33:25;;;;;;;7.63;6.03;;;;;;;;;;4968848;28;20099;-74
2022/07/29 04:35:51;;;;;;;7.22;6.50;;;;;;;;;;4979551;28;20026;-72
2022/07/29 04:38:16;;;;;;;6.95;6.35;;;;;;;;;;4981145;28;20065;-73
2022/07/29 04:40:42;;;;;;;6.47;5.88;;;;;;;;;;4980709;28;20046;-74
2022/07/29 04:43:07;;;;;;;6.68;5.97;;;;;;;;;;4979658;28;20088;-72
2022/07/29 04:45:32;;;;;;;6.15;5.55;;;;;;;;;;4979105;28;20018;-72
2022/07/29 04:47:58;;;;;;;7.13;5.72;;;;;;;;;;4981942;28;20354;-75
2022/07/29 04:50:23;;;;;;;7.40;5.63;;;;;;;;;;4972230;28;20458;-72
2022/07/29 04:52:48;;;;;;;7.10;6.45;;;;;;;;;;4980031;28;20113;-72
2022/07/29 04:55:14;;;;;;;6.95;6.28;;;;;;;;;;4982573;28;20034;-72
2022/07/29 04:57:39;;;;;;;11.00;7.20;;;;;;;;;;4981326;28;20069;-72
2022/07/29 05:00:05;;;;;;;9.30;6.15;;;;;;;;;;4979868;28;20438;-72
2022/07/29 05:02:30;;;;;;;9.07;6.78;;;;;;;;;;4970516;28;20573;-73
2022/07/29 05:04:56;;;;;;;14.57;7.20;;;;;;;;;;4969551;28;20030;-72
2022/07/29 05:07:21;;;;;;;8.02;7.22;;;;;;;;;;4969993;28;20097;-74
2022/07/29 05:09:46;;;;;;;9.35;8.45;;;;;;;;;;4970026;28;20014;-73
2022/07/29 05:12:12;;;;;;;7.93;6.95;;;;;;;;;;4975868;28;20019;-76
2022/07/29 05:14:37;;;;;;;8.13;7.40;;;;;;;;;;4972911;28;20172;-75
2022/07/29 05:17:02;;;;;;;7.72;7.07;;;;;;;;;;4976692;28;21202;-72
2022/07/29 05:19:28;;;;;;;8.68;7.00;;;;;;;;;;4971930;28;20033;-73
2022/07/29 05:21:53;;;;;;;11.32;6.05;;;;;;;;;;4962443;28;20084;-76
2022/07/29 05:24:18;;;;;;;7.72;7.03;;;;;;;;;;4968307;28;20144;-76
2022/07/29 05:26:44;;;;;;;6.88;6.18;;;;;;;;;;4974515;28;20062;-75
2022/07/29 05:29:09;;;;;;;5.90;5.40;;;;;;;;;;4971228;28;20026;-73
2022/07/29 05:31:34;;;;;;;6.15;5.55;;;;;;;;;;4978860;28;20038;-72
2022/07/29 05:34:00;;;;;;;6.25;5.57;;;;;;;;;;4978798;28;20061;-70
2022/07/29 05:36:25;;;;;;;6.82;6.10;;;;;;;;;;4977446;28;20042;-71
2022/07/29 05:38:51;;;;;;;5.88;5.35;;;;;;;;;;4970475;28;20022;-71
2022/07/29 05:41:17;;;;;;;5.53;5.03;;;;;;;;;;4969267;28;20063;-72
2022/07/29 05:43:42;;;;;;;6.07;5.50;;;;;;;;;;4974269;28;20030;-73
2022/07/29 05:46:08;;;;;;;7.70;5.18;;;;;;;;;;4970373;28;20037;-72
2022/07/29 05:48:33;;;;;;;7.38;5.03;;;;;;;;;;4971686;28;20018;-72
2022/07/29 05:50:58;;;;;;;5.18;4.68;;;;;;;;;;4970985;28;20341;-72
2022/07/29 05:53:24;;;;;;;5.45;4.95;;;;;;;;;;4971195;28;20027;-71
2022/07/29 05:55:49;;;;;;;6.22;5.63;;;;;;;;;;4967001;28;21008;-73
2022/07/29 05:58:15;;;;;;;4.90;4.50;;;;;;;;;;4967499;28;20413;-73
2022/07/29 06:00:41;;;;;;;6.10;5.35;;;;;;;;;;4972612;28;20168;-72
2022/07/29 06:03:06;;;;;;;4.82;4.18;;;;;;;;;;4972727;28;20038;-71
2022/07/29 06:05:31;;;;;;;5.43;3.92;;;;;;;;;;4979511;28;20042;-71
2022/07/29 06:07:57;;;;;;;4.50;4.10;;;;;;;;;;4978210;28;20046;-72
2022/07/29 06:10:22;;;;;;;4.32;4.00;;;;;;;;;;4971183;28;20093;-71
2022/07/29 06:12:47;;;;;;;4.15;3.70;;;;;;;;;;4970257;28;20058;-72
2022/07/29 06:15:13;;;;;;;4.65;4.13;;;;;;;;;;4963948;28;20045;-74
2022/07/29 06:17:38;;;;;;;7.50;4.60;;;;;;;;;;4963076;28;20034;-72
2022/07/29 06:20:04;;;;;;;5.05;4.65;;;;;;;;;;4966088;28;20072;-73
2022/07/29 06:22:30;;;;;;;5.43;4.88;;;;;;;;;;4967042;28;20037;-74
2022/07/29 06:24:55;;;;;;;5.53;5.03;;;;;;;;;;4963656;28;20029;-72
2022/07/29 06:27:20;;;;;;;6.28;5.15;;;;;;;;;;4960798;28;20030;-76
2022/07/29 06:29:46;;;;;;;5.15;4.65;;;;;;;;;;4960734;28;20193;-72
2022/07/29 06:32:11;;;;;;;5.05;4.55;;;;;;;;;;4968246;28;20018;-71
2022/07/29 06:34:37;;;;;;;5.40;4.90;;;;;;;;;;4967397;28;20465;-71
2022/07/29 06:37:06;;;;;;;5.25;4.85;;;;;;;;;;4966855;28;20080;-75
2022/07/29 06:39:31;;;;;;;5.22;4.72;;;;;;;;;;4968259;28;20125;-75
2022/07/29 06:41:57;;;;;;;5.45;4.95;;;;;;;;;;4982714;28;20129;-75
2022/07/29 06:44:22;;;;;;;6.50;5.72;;;;;;;;;;4968944;28;20038;-77
2022/07/29 06:46:51;;;;;;;5.80;5.10;;;;;;;;;;4965117;28;20144;-76
2022/07/29 06:49:16;;;;;;;4.72;4.32;;;;;;;;;;4968773;28;20019;-78
2022/07/29 06:51:42;;;;;;;5.20;4.70;;;;;;;;;;4973114;28;20030;-75
2022/07/29 06:54:07;;;;;;;5.53;5.13;;;;;;;;;;4961854;28;20038;-76
2022/07/29 06:56:33;;;;;;;6.22;4.72;;;;;;;;;;4968783;28;20072;-76
2022/07/29 06:58:58;;;;;;;6.53;5.32;;;;;;;;;;4965455;28;20030;-77
2022/07/29 07:01:24;;;;;;;4.93;4.53;;;;;;;;;;4966377;28;20409;-75
2022/07/29 07:03:49;;;;;;;4.97;4.47;;;;;;;;;;4975296;28;20030;-77
2022/07/29 07:06:15;;;;;;;5.32;4.88;;;;;;;;;;4979038;28;20048;-76
2022/07/29 07:08:40;;;;;;;5.68;5.18;;;;;;;;;;4978869;28;20030;-75
2022/07/29 07:11:06;;;;;;;5.32;4.82;;;;;;;;;;4976510;28;20018;-78
2022/07/29 07:13:34;;;;;;;5.90;5.30;;;;;;;;;;4978098;28;20053;-78
2022/07/29 07:16:00;;;;;;;5.47;4.97;;;;;;;;;;4978907;28;20030;-76
2022/07/29 07:18:25;;;;;;;5.80;5.30;;;;;;;;;;4978015;28;20484;-76
2022/07/29 07:20:50;;;;;;;5.35;4.82;;;;;;;;;;4977128;28;20431;-76
2022/07/29 07:23:16;;;;;;;5.10;4.70;;;;;;;;;;4978678;28;20034;-77
2022/07/29 07:25:41;;;;;;;5.20;4.70;;;;;;;;;;4980544;28;20128;-77
2022/07/29 07:28:07;;;;;;;6.63;5.93;;;;;;;;;;4980461;28;20030;-75
2022/07/29 07:30:32;;;;;;;6.18;5.68;;;;;;;;;;4976470;28;20022;-80
2022/07/29 07:32:57;;;;;;;5.38;4.97;;;;;;;;;;4979912;28;20030;-76
2022/07/29 07:35:24;;;;;;;5.45;4.95;;;;;;;;;;4976356;28;20078;-78
2022/07/29 07:37:49;;;;;;;5.78;5.28;;;;;;;;;;4976215;28;20018;-78
2022/07/29 07:40:14;;;;;;;6.88;5.40;;;;;;;;;;4977095;28;20042;-77
2022/07/29 07:42:40;;;;;;;5.93;5.32;;;;;;;;;;4977003;28;20141;-74
2022/07/29 07:45:08;;;;;;;6.97;5.40;;;;;;;;;;4972197;28;20453;-75
2022/07/29 07:47:34;;;;;;;7.05;5.13;;;;;;;;;;4967180;28;20506;-75
2022/07/29 07:50:00;;;;;;;6.13;5.63;;;;;;;;;;4967185;28;20089;-79
2022/07/29 07:52:25;;;;;;;8.45;6.30;;;;;;;;;;4977350;28;20509;-78
2022/07/29 07:54:51;;;;;;;6.53;5.90;;;;;;;;;;4978985;28;20030;-77
2022/07/29 07:57:16;;;;;;;7.40;5.50;;;;;;;;;;4974551;28;20029;-77
2022/07/29 07:59:42;;;;;;;6.28;5.68;;;;;;;;;;4966063;28;20104;-75
2022/07/29 08:02:07;;;;;;;7.28;6.50;;;;;;;;;;4965596;28;20034;-76
2022/07/29 08:04:33;;;;;;;6.20;5.63;;;;;;;;;;4961862;28;20031;-76
2022/07/29 08:07:00;;;;;;;6.45;5.95;;;;;;;;;;4966006;28;20481;-75
2022/07/29 08:09:26;;;;;;;6.60;5.90;;;;;;;;;;4965963;28;20026;-79
2022/07/29 08:11:52;;;;;;;7.70;6.10;;;;;;;;;;4967070;28;20081;-77
2022/07/29 08:14:17;;;;;;;7.90;7.20;;;;;;;;;;4967259;28;20034;-75
2022/07/29 08:16:43;;;;;;;7.93;7.30;;;;;;;;;;4965752;28;20077;-76
2022/07/29 08:19:08;;;;;;;9.63;8.57;;;;;;;;;;4969191;28;20061;-75
2022/07/29 08:21:34;;;;;;;9.27;8.48;;;;;;;;;;4968523;28;20022;-76
2022/07/29 08:26:43;;;;;;;10.20;9.30;;;;;;;;;;4969294;28;20056;-76
2022/07/29 08:29:09;;;;;;;9.45;8.60;;;;;;;;;;4970590;28;20034;-76
2022/07/29 08:31:34;;;;;;;9.75;8.95;;;;;;;;;;4969058;28;20280;-78
2022/07/29 08:34:00;;;;;;;9.70;8.70;;;;;;;;;;4971108;28;20429;-77
2022/07/29 08:36:26;;;;;;;10.23;9.40;;;;;;;;;;4968965;28;20035;-77
2022/07/29 08:38:51;;;;;;;9.95;9.15;;;;;;;;;;4971801;28;20034;-75
2022/07/29 08:41:18;;;;;;;10.13;9.30;;;;;;;;;;4969665;28;20041;-76
2022/07/29 08:43:44;;;;;;;10.45;9.63;;;;;;;;;;4970002;28;20122;-75
2022/07/29 08:46:10;;;;;;;10.32;9.43;;;;;;;;;;4968053;28;20133;-76
2022/07/29 08:48:35;;;;;;;10.43;9.55;;;;;;;;;;4970707;28;20037;-77
2022/07/29 08:51:01;;;;;;;10.35;9.35;;;;;;;;;;4969696;28;20838;-76
2022/07/29 08:53:27;;;;;;;10.98;10.00;;;;;;;;;;4971153;28;20026;-75
2022/07/29 08:55:53;;;;;;;10.70;9.70;;;;;;;;;;4969006;28;20442;-75
2022/07/29 08:58:19;;;;;;;10.27;9.38;;;;;;;;;;4971329;28;20031;-76
2022/07/29 09:00:52;;;;;;;9.55;8.70;;;;;;;;;;4970752;28;20050;-76
2022/07/29 09:03:19;;;;;;;10.18;9.38;;;;;;;;;;4973725;28;20137;-76
2022/07/29 09:05:47;;;;;;;10.18;9.27;;;;;;;;;;4969509;28;20109;-74
2022/07/29 09:08:13;;;;;;;10.05;9.15;;;;;;;;;;4975304;28;20041;-76
2022/07/29 09:10:38;;;;;;;10.25;9.43;;;;;;;;;;4975710;28;20022;-78
2022/07/29 09:13:04;;;;;;;10.27;9.35;;;;;;;;;;4972880;28;20157;-75
2022/07/29 09:15:30;;;;;;;15.40;9.68;;;;;;;;;;4977707;28;20027;-74
2022/07/29 09:17:56;;;;;;;10.02;9.13;;;;;;;;;;4970060;28;20030;-74
2022/07/29 09:20:22;;;;;;;10.13;9.23;;;;;;;;;;4969240;28;20038;-75
2022/07/29 09:22:53;;;;;;;10.35;9.32;;;;;;;;;;4970379;28;20480;-75
2022/07/29 09:25:34;;;;;;;10.60;9.73;;;;;;;;;;4972069;28;20112;-76
2022/07/29 09:28:29;;;;;;;10.52;9.63;;;;;;;;;;4975303;28;20033;-75
2022/07/29 09:30:56;;;;;;;11.18;10.13;;;;;;;;;;4938242;28;20035;-74
2022/07/29 09:33:22;;;;;;;10.32;9.35;;;;;;;;;;4938199;28;20062;-74
2022/07/29 09:35:58;;;;;;;11.65;10.75;;;;;;;;;;4942391;28;20043;-74
2022/07/29 09:38:24;;;;;;;12.95;11.85;;;;;;;;;;4938427;28;20043;-76
2022/07/29 09:41:02;;;;;;;10.45;9.65;;;;;;;;;;4940004;28;20070;-74
2022/07/29 09:43:28;;;;;;;9.60;8.88;;;;;;;;;;4939592;28;20088;-73
2022/07/29 09:45:54;;;;;;;10.93;9.93;;;;;;;;;;4938822;28;20149;-73
2022/07/29 09:48:20;;;;;;;12.32;10.05;;;;;;;;;;4939037;28;20047;-72
2022/07/29 09:50:48;;;;;;;11.40;10.20;;;;;;;;;;4925057;28;20027;-78
2022/07/29 09:53:29;;;;;;;9.63;8.90;;;;;;;;;;4921264;29;20087;-75
2022/07/29 09:55:54;;;;;;;10.30;9.45;;;;;;;;;;4924440;29;20027;-73
2022/07/29 09:58:21;;;;;;;9.75;8.85;;;;;;;;;;4924777;29;20110;-74
2022/07/29 10:00:47;;;;;;;9.27;8.40;;;;;;;;;;4939771;28;20039;-77
2022/07/29 10:03:13;;;;;;;10.75;9.85;;;;;;;;;;4940034;28;20035;-76
2022/07/29 10:05:39;;;;;;;11.25;9.50;;;;;;;;;;4939712;28;20044;-76
2022/07/29 10:08:04;;;;;;;9.20;8.50;;;;;;;;;;4961549;28;20088;-75
2022/07/29 10:10:30;;;;;;;9.90;9.15;;;;;;;;;;4975674;28;20535;-73
2022/07/29 10:12:59;;;;;;;9.65;8.75;;;;;;;;;;4974631;28;20042;-75
2022/07/29 10:15:26;;;;;;;10.27;9.30;;;;;;;;;;4978090;28;20037;-75
2022/07/29 10:17:52;;;;;;;10.57;9.55;;;;;;;;;;4976476;28;20076;-74
2022/07/29 10:20:18;;;;;;;9.10;8.32;;;;;;;;;;4966457;28;20033;-73
2022/07/29 10:22:43;;;;;;;10.02;9.02;;;;;;;;;;4979355;28;20034;-73
2022/07/29 10:25:09;;;;;;;9.05;8.25;;;;;;;;;;4968492;28;20432;-74
2022/07/29 10:27:35;;;;;;;11.10;8.60;;;;;;;;;;4968595;28;20033;-73
2022/07/29 10:30:01;;;;;;;9.10;8.20;;;;;;;;;;4968456;28;20038;-79
2022/07/29 10:32:26;;;;;;;8.38;7.68;;;;;;;;;;4980142;28;20072;-80
2022/07/29 10:35:10;;;;;;;9.75;8.70;;;;;;;;;;4981237;28;20034;-76
2022/07/29 10:37:55;;;;;;;8.75;8.02;;;;;;;;;;4968191;28;20044;-75
2022/07/29 10:43:22;;;;;;;10.25;9.23;;;;;;;;;;4968735;28;20453;-75
2022/07/29 10:45:47;;;;;;;9.82;9.00;;;;;;;;;;4968582;28;20030;-73
2022/07/29 10:48:13;;;;;;;9.77;8.88;;;;;;;;;;4968983;28;20034;-73
2022/07/29 10:50:55;;;;;;;9.20;8.30;;;;;;;;;;4966766;28;20026;-79
2022/07/29 10:53:20;;;;;;;9.77;8.88;;;;;;;;;;4978186;28;20033;-76
2022/07/29 10:55:48;;;;;;;9.75;8.77;;;;;;;;;;4969040;28;20026;-78
2022/07/29 10:58:14;;;;;;;9.75;8.90;;;;;;;;;;4969173;28;20109;-75
2022/07/29 11:00:40;;;;;;;8.48;7.78;;;;;;;;;;4967988;28;20033;-76
2022/07/29 11:03:05;;;;;;;9.15;8.32;;;;;;;;;;4971476;28;20038;-75
2022/07/29 11:05:50;;;;;;;8.98;8.10;;;;;;;;;;4993008;28;20022;-74
2022/07/29 11:08:18;;;;;;;10.73;8.10;;;;;;;;;;4994119;28;20029;-75
2022/07/29 11:10:44;;;;;;;9.52;8.63;;;;;;;;;;4984571;28;20788;-79
2022/07/29 11:13:09;;;;;;;9.18;8.30;;;;;;;;;;4969666;28;20061;-79
2022/07/29 11:15:54;;;;;;;8.73;7.70;;;;;;;;;;4968985;28;20081;-76
2022/07/29 11:18:20;;;;;;;8.77;8.00;;;;;;;;;;4968493;28;20110;-76
2022/07/29 11:20:47;;;;;;;10.02;8.43;;;;;;;;;;4966387;28;20165;-77
2022/07/29 11:23:26;;;;;;;8.57;7.78;;;;;;;;;;4972576;28;20038;-76
2022/07/29 11:26:10;;;;;;;8.93;8.02;;;;;;;;;;4969371;28;20018;-74
2022/07/29 11:28:39;;;;;;;8.35;7.65;;;;;;;;;;4969331;28;20030;-75
2022/07/29 11:31:05;;;;;;;10.75;8.43;;;;;;;;;;4967879;28;20085;-76
2022/07/29 11:33:31;;;;;;;8.88;8.00;;;;;;;;;;4968808;28;20426;-76
2022/07/29 11:36:15;;;;;;;8.18;7.50;;;;;;;;;;4964671;28;20511;-75
2022/07/29 11:38:40;;;;;;;8.82;8.07;;;;;;;;;;4983184;28;20073;-75
2022/07/29 11:41:25;;;;;;;8.27;7.47;;;;;;;;;;4967948;28;20054;-78
2022/07/29 11:43:51;;;;;;;8.85;8.00;;;;;;;;;;4968120;28;20394;-74
2022/07/29 11:46:35;;;;;;;7.95;7.15;;;;;;;;;;4967164;28;20030;-75
2022/07/29 11:49:02;;;;;;;7.97;7.28;;;;;;;;;;4966132;28;20038;-74
2022/07/29 11:51:27;;;;;;;8.13;7.38;;;;;;;;;;4966599;28;20084;-76
2022/07/29 11:53:53;;;;;;;8.75;7.95;;;;;;;;;;4968816;28;20063;-75
2022/07/29 11:56:20;;;;;;;8.73;7.93;;;;;;;;;;4979128;28;20039;-79
2022/07/29 11:58:46;;;;;;;8.02;7.35;;;;;;;;;;4979700;28;20105;-76
2022/07/29 12:01:16;;;;;;;12.27;8.05;;;;;;;;;;4974595;28;20537;-76
2022/07/29 12:03:42;;;;;;;7.80;6.65;;;;;;;;;;4982722;28;20100;-74
2022/07/29 12:06:13;;;;;;;8.15;7.35;;;;;;;;;;4978342;28;20031;-75
2022/07/29 12:08:42;;;;;;;8.55;7.85;;;;;;;;;;4983388;28;20114;-74
2022/07/29 12:11:15;;;;;;;7.47;6.88;;;;;;;;;;4979996;28;20026;-76
2022/07/29 12:13:40;;;;;;;9.73;6.93;;;;;;;;;;4971487;28;20042;-76
2022/07/29 12:16:05;;;;;;;8.57;7.68;;;;;;;;;;4969432;28;20072;-76
2022/07/29 12:18:31;;;;;;;8.65;7.90;;;;;;;;;;4971618;28;20412;-77
2022/07/29 12:21:03;;;;;;;8.10;7.50;;;;;;;;;;4969807;28;20121;-76
2022/07/29 12:23:28;;;;;;;8.27;7.57;;;;;;;;;;4965309;28;20042;-75
2022/07/29 12:25:54;;;;;;;7.45;6.75;;;;;;;;;;4966400;28;20034;-75
2022/07/29 12:28:21;;;;;;;7.97;7.20;;;;;;;;;;4965370;28;20026;-77
2022/07/29 12:30:50;;;;;;;8.13;7.43;;;;;;;;;;4967580;28;20034;-77
2022/07/29 12:33:20;;;;;;;8.73;7.88;;;;;;;;;;4975235;28;20042;-76
2022/07/29 12:35:47;;;;;;;7.95;7.25;;;;;;;;;;4980555;28;20117;-77
2022/07/29 12:38:13;;;;;;;8.98;8.18;;;;;;;;;;4971016;28;20037;-76
2022/07/29 12:40:38;;;;;;;7.70;7.00;;;;;;;;;;4980117;28;20050;-79
2022/07/29 12:43:09;;;;;;;8.43;7.65;;;;;;;;;;4980236;28;20031;-77
2022/07/29 12:45:34;;;;;;;8.02;7.38;;;;;;;;;;4982073;28;20029;-78
2022/07/29 12:48:00;;;;;;;7.85;7.18;;;;;;;;;;4979780;28;20113;-77
2022/07/29 12:50:25;;;;;;;8.68;7.97;;;;;;;;;;4980951;28;20030;-77
2022/07/29 12:52:51;;;;;;;7.72;7.03;;;;;;;;;;4978378;28;20042;-79
2022/07/29 12:55:36;;;;;;;10.30;7.85;;;;;;;;;;4975618;28;20038;-77
2022/07/29 12:58:02;;;;;;;7.93;7.30;;;;;;;;;;4980831;28;20049;-77
2022/07/29 13:00:28;;;;;;;7.57;6.82;;;;;;;;;;4979326;28;20038;-77
2022/07/29 13:02:57;;;;;;;7.88;6.82;;;;;;;;;;4980084;28;20382;-77
2022/07/29 13:05:22;;;;;;;8.35;7.55;;;;;;;;;;4969264;28;20459;-79
2022/07/29 13:07:47;;;;;;;11.38;7.80;;;;;;;;;;4968812;28;20030;-78
2022/07/29 13:10:13;;;;;;;7.82;7.13;;;;;;;;;;4971162;28;20394;-77
2022/07/29 13:12:38;;;;;;;7.90;7.20;;;;;;;;;;4971032;28;20374;-79
2022/07/29 13:15:16;;;;;;;8.02;7.32;;;;;;;;;;4969135;28;20030;-79
2022/07/29 13:17:43;;;;;;;7.63;7.03;;;;;;;;;;4967592;28;20442;-79
2022/07/29 13:20:12;;;;;;;7.47;6.78;;;;;;;;;;4961873;28;20756;-79
2022/07/29 13:22:37;;;;;;;8.13;7.47;;;;;;;;;;4965143;28;20033;-81
2022/07/29 13:25:04;;;;;;;7.95;7.22;;;;;;;;;;4967701;28;20030;-76
2022/07/29 13:27:34;;;;;;;7.75;7.07;;;;;;;;;;4971698;28;20088;-77
2022/07/29 13:30:00;;;;;;;7.80;7.10;;;;;;;;;;4970022;28;20026;-77
2022/07/29 13:32:27;;;;;;;7.30;6.68;;;;;;;;;;4963352;28;20038;-77
2022/07/29 13:34:52;;;;;;;8.02;7.28;;;;;;;;;;4967298;28;20105;-80
2022/07/29 13:37:18;;;;;;;8.15;7.45;;;;;;;;;;4962057;28;20117;-78
2022/07/29 13:39:44;;;;;;;7.05;6.47;;;;;;;;;;4964330;28;20051;-78
2022/07/29 13:42:09;;;;;;;8.05;7.25;;;;;;;;;;4965502;28;20023;-78
2022/07/29 13:44:35;;;;;;;7.40;6.60;;;;;;;;;;4967697;28;20026;-78
2022/07/29 13:47:00;;;;;;;8.50;7.50;;;;;;;;;;4977063;28;20108;-78
2022/07/29 13:49:27;;;;;;;7.72;7.10;;;;;;;;;;4976545;28;20988;-78
2022/07/29 13:51:53;;;;;;;8.77;8.05;;;;;;;;;;4978649;28;21149;-78
2022/07/29 13:54:18;;;;;;;7.68;6.57;;;;;;;;;;4976199;28;20065;-77
2022/07/29 13:56:43;;;;;;;7.18;6.55;;;;;;;;;;4978523;28;20027;-79
2022/07/29 13:59:09;;;;;;;8.48;7.78;;;;;;;;;;4978389;28;20034;-79
2022/07/29 14:01:35;;;;;;;7.20;6.50;;;;;;;;;;4977376;28;20350;-79
2022/07/29 14:04:00;;;;;;;7.35;6.85;;;;;;;;;;4973463;28;20066;-80
2022/07/29 14:06:25;;;;;;;8.18;7.47;;;;;;;;;;4976022;28;20069;-80
2022/07/29 14:08:51;;;;;;;7.75;7.05;;;;;;;;;;4971475;28;20214;-78
2022/07/29 14:11:16;;;;;;;10.18;7.10;;;;;;;;;;4975058;28;20032;-81
2022/07/29 14:13:41;;;;;;;12.65;7.18;;;;;;;;;;4975517;28;20030;-76
2022/07/29 14:16:07;;;;;;;6.82;6.22;;;;;;;;;;4973625;28;20672;-79
2022/07/29 14:18:33;;;;;;;7.40;6.80;;;;;;;;;;4975404;28;20427;-78
2022/07/29 14:20:58;;;;;;;7.47;6.88;;;;;;;;;;4976424;28;20074;-78
2022/07/29 14:23:23;;;;;;;7.68;7.07;;;;;;;;;;4978244;28;20316;-78
2022/07/29 14:25:49;;;;;;;7.80;6.55;;;;;;;;;;4972761;28;20034;-76
2022/07/29 14:28:14;;;;;;;7.20;6.60;;;;;;;;;;4988447;28;20034;-74
2022/07/29 14:30:39;;;;;;;7.00;6.20;;;;;;;;;;4974366;28;20032;-80
2022/07/29 14:33:05;;;;;;;6.95;6.38;;;;;;;;;;4977697;28;20045;-76
2022/07/29 14:35:30;;;;;;;9.07;6.45;;;;;;;;;;4979228;28;20042;-78
2022/07/29 14:37:55;;;;;;;6.07;5.57;;;;;;;;;;4975709;28;20056;-79
2022/07/29 14:40:21;;;;;;;8.18;7.35;;;;;;;;;;4968029;28;20054;-74
2022/07/29 14:42:46;;;;;;;7.70;6.95;;;;;;;;;;4969035;28;20046;-77
2022/07/29 14:45:12;;;;;;;6.72;6.13;;;;;;;;;;4969766;28;20033;-78
2022/07/29 14:47:37;;;;;;;8.20;7.00;;;;;;;;;;4961007;28;20076;-75
2022/07/29 14:50:04;;;;;;;7.35;6.75;;;;;;;;;;4965646;28;20109;-76